Ava, Missouri
Current Conditions -  °F | °C
As of 9:55 PM on Friday 24 Oct 2014 (Local Time) from KBBG Reporting Station
Clear Clear  
Wind Chill: 63°   Ceiling: Unl
Heat Index: 63°   Visibility: 10mi
Dew Point: 59°   Wind: 3mph
Humidity: 88%   Direction: 200°SSW
Pressure: 30.09"   Gusts: NA
Location:  36.95°N, 92.66°W
Report Text: KBBG 250255Z AUTO 20003KT 10SM CLR 17/15 A3009 RMK AO2
Loading
Personal Weather Stations






























Interactive Weather Map
Tropical Storm Tracking
New forecast layout! Learn more

10-Day Weather Forecast

Advertisements
Track Severe Weather on mobile